createdAt,value
2023-02-20T00:00:53.897Z,7.60
2023-02-20T00:03:20.965Z,7.60
2023-02-20T00:05:47.773Z,7.60
2023-02-20T00:08:14.472Z,7.50
2023-02-20T00:10:41.399Z,7.50
2023-02-20T00:13:08.134Z,7.50
2023-02-20T00:15:34.912Z,7.50
2023-02-20T00:18:01.677Z,7.50
2023-02-20T00:20:30.516Z,7.50
2023-02-20T00:22:57.337Z,7.50
2023-02-20T00:25:24.261Z,7.50
2023-02-20T00:27:51.492Z,7.40
2023-02-20T00:30:23.267Z,7.40
2023-02-20T00:32:52.016Z,7.50
2023-02-20T00:35:20.025Z,7.50
2023-02-20T00:37:47.731Z,7.50
2023-02-20T00:40:15.419Z,7.60
2023-02-20T00:42:42.239Z,7.60
2023-02-20T00:45:10.368Z,7.50
2023-02-20T00:47:37.191Z,7.50
2023-02-20T00:50:05.586Z,7.60
2023-02-20T00:52:32.282Z,7.60
2023-02-20T00:54:59.030Z,7.50
2023-02-20T00:57:25.824Z,7.60
2023-02-20T00:59:53.310Z,7.50
2023-02-20T01:02:20.810Z,7.50
2023-02-20T01:04:47.555Z,7.50
2023-02-20T01:07:14.355Z,7.50
2023-02-20T01:09:41.033Z,7.50
2023-02-20T01:12:08.096Z,7.50
2023-02-20T01:14:34.864Z,7.50
2023-02-20T01:17:01.588Z,7.40
2023-02-20T01:19:28.480Z,7.50
2023-02-20T01:21:55.553Z,7.50
2023-02-20T01:24:22.221Z,7.60
2023-02-20T01:26:49.646Z,7.50
2023-02-20T01:29:17.726Z,7.40
2023-02-20T01:31:52.273Z,7.50
2023-02-20T01:34:20.421Z,7.20
2023-02-20T01:36:52.448Z,7.20
2023-02-20T01:39:21.300Z,7.30
2023-02-20T01:41:50.792Z,7.40
2023-02-20T01:44:23.167Z,7.40
2023-02-20T01:46:56.860Z,7.40
2023-02-20T01:49:32.986Z,7.40
2023-02-20T01:52:23.780Z,7.50
2023-02-20T01:54:56.238Z,7.50
2023-02-20T01:57:26.332Z,7.40
2023-02-20T01:59:57.423Z,7.50
2023-02-20T02:02:25.703Z,7.40
2023-02-20T02:04:52.614Z,7.30
2023-02-20T02:07:19.468Z,7.30
2023-02-20T02:10:00.159Z,7.30
2023-02-20T02:12:26.953Z,7.30
2023-02-20T02:14:53.884Z,7.30
2023-02-20T02:17:55.072Z,7.40
2023-02-20T02:20:40.033Z,7.40
2023-02-20T02:23:12.606Z,7.30
2023-02-20T02:25:48.736Z,7.30
2023-02-20T02:28:29.392Z,7.30
2023-02-20T02:31:06.963Z,7.30
2023-02-20T02:34:12.270Z,7.30
2023-02-20T02:36:51.622Z,7.30
2023-02-20T02:39:40.563Z,7.30
2023-02-20T02:42:31.015Z,7.30
2023-02-20T02:45:08.352Z,7.30
2023-02-20T02:47:50.856Z,7.20
2023-02-20T02:50:19.964Z,7.10
2023-02-20T02:52:51.362Z,7.00
2023-02-20T02:55:24.401Z,7.10
2023-02-20T02:57:51.316Z,7.10
2023-02-20T03:00:26.383Z,7.10
2023-02-20T03:03:04.439Z,7.00
2023-02-20T03:05:40.944Z,7.00
2023-02-20T03:08:22.383Z,6.90
2023-02-20T03:10:53.418Z,6.90
2023-02-20T03:13:20.597Z,6.90
2023-02-20T03:15:53.154Z,6.80
2023-02-20T03:18:22.891Z,6.80
2023-02-20T03:20:54.341Z,6.70
2023-02-20T03:23:27.736Z,6.60
2023-02-20T03:25:58.517Z,6.60
2023-02-20T03:28:30.341Z,6.60
2023-02-20T03:31:04.674Z,6.70
2023-02-20T03:33:52.144Z,6.60
2023-02-20T03:36:45.023Z,6.60
2023-02-20T03:39:36.556Z,6.50
2023-02-20T03:42:24.908Z,6.50
2023-02-20T03:44:51.903Z,6.40
2023-02-20T03:47:21.963Z,6.30
2023-02-20T03:49:51.428Z,6.30
2023-02-20T03:52:18.650Z,6.30
2023-02-20T03:54:45.594Z,6.30
2023-02-20T03:57:26.997Z,6.20
2023-02-20T04:00:02.101Z,6.20
2023-02-20T04:02:36.622Z,6.20
2023-02-20T04:05:06.022Z,6.20
2023-02-20T04:07:41.239Z,6.10
2023-02-20T04:10:13.680Z,6.10
2023-02-20T04:12:44.152Z,6.10
2023-02-20T04:15:12.358Z,6.10
2023-02-20T04:17:52.828Z,6.10
2023-02-20T04:20:19.698Z,6.10
2023-02-20T04:22:50.071Z,6.00
2023-02-20T04:25:25.623Z,6.00
2023-02-20T04:27:52.718Z,5.90
2023-02-20T04:30:19.517Z,5.90
2023-02-20T04:32:46.232Z,5.90
2023-02-20T04:35:18.657Z,5.80
2023-02-20T04:37:45.340Z,5.70
2023-02-20T04:40:14.126Z,5.60
2023-02-20T04:42:40.811Z,5.50
2023-02-20T04:45:07.662Z,5.40
2023-02-20T04:47:34.541Z,5.10
2023-02-20T04:50:01.893Z,5.20
2023-02-20T04:52:28.636Z,5.20
2023-02-20T04:54:55.348Z,5.30
2023-02-20T04:57:22.455Z,5.20
2023-02-20T04:59:49.332Z,5.30
2023-02-20T05:02:15.996Z,5.30
2023-02-20T05:04:42.738Z,4.80
2023-02-20T05:07:09.458Z,4.90
2023-02-20T05:09:36.134Z,5.00
2023-02-20T05:12:02.892Z,5.00
2023-02-20T05:14:29.574Z,5.00
2023-02-20T05:16:56.226Z,4.90
2023-02-20T05:19:22.929Z,4.90
2023-02-20T05:22:08.135Z,4.80
2023-02-20T05:24:34.875Z,4.70
2023-02-20T05:27:01.754Z,4.80
2023-02-20T05:29:28.559Z,4.70
2023-02-20T05:31:55.584Z,4.60
2023-02-20T05:34:22.800Z,4.60
2023-02-20T05:36:49.593Z,4.60
2023-02-20T05:39:16.441Z,4.60
2023-02-20T05:41:43.358Z,4.60
2023-02-20T05:44:10.091Z,4.50
2023-02-20T05:46:41.522Z,4.40
2023-02-20T05:49:09.777Z,4.30
2023-02-20T05:51:36.547Z,4.30
2023-02-20T05:54:04.161Z,4.20
2023-02-20T05:56:32.877Z,4.10
2023-02-20T05:59:00.226Z,4.10
2023-02-20T06:01:29.178Z,4.10
2023-02-20T06:03:55.948Z,4.00
2023-02-20T06:06:22.747Z,4.00
2023-02-20T06:08:49.812Z,4.00
2023-02-20T06:11:16.946Z,3.90
2023-02-20T06:13:45.463Z,3.90
2023-02-20T06:16:13.837Z,3.80
2023-02-20T06:18:42.485Z,3.90
2023-02-20T06:21:10.441Z,3.70
2023-02-20T06:23:38.534Z,3.80
2023-02-20T06:26:06.825Z,3.90
2023-02-20T06:28:34.537Z,4.00
2023-02-20T06:31:02.270Z,4.10
2023-02-20T06:33:29.558Z,4.20
2023-02-20T06:35:56.420Z,4.30
2023-02-20T06:38:23.571Z,4.40
2023-02-20T06:40:50.245Z,4.50
2023-02-20T06:43:17.322Z,4.60
2023-02-20T06:45:44.362Z,4.70
2023-02-20T06:48:11.341Z,4.60
2023-02-20T06:50:38.016Z,4.60
2023-02-20T06:53:04.725Z,4.70
2023-02-20T06:55:31.578Z,4.70
2023-02-20T06:57:58.631Z,4.70
2023-02-20T07:00:25.647Z,4.80
2023-02-20T07:02:52.669Z,4.80
2023-02-20T07:05:19.477Z,4.80
2023-02-20T07:07:46.143Z,4.90
2023-02-20T07:10:12.834Z,5.00
2023-02-20T07:12:39.752Z,5.00
2023-02-20T07:15:08.119Z,5.20
2023-02-20T07:17:34.813Z,5.20
2023-02-20T07:20:01.594Z,5.30
2023-02-20T07:22:28.281Z,5.30
2023-02-20T07:24:55.795Z,5.30
2023-02-20T07:27:23.111Z,5.20
2023-02-20T07:29:50.986Z,5.30
2023-02-20T07:32:20.579Z,5.30
2023-02-20T07:35:01.554Z,5.40
2023-02-20T07:37:30.508Z,5.60
2023-02-20T07:39:57.172Z,5.60
2023-02-20T07:42:24.213Z,5.60
2023-02-20T07:44:50.946Z,5.70
2023-02-20T07:47:17.631Z,5.70
2023-02-20T07:49:44.453Z,5.80
2023-02-20T07:52:11.194Z,5.90
2023-02-20T07:54:37.893Z,5.90
2023-02-20T07:57:04.661Z,6.00
2023-02-20T07:59:31.377Z,6.10
2023-02-20T08:01:58.101Z,6.10
2023-02-20T08:04:25.047Z,6.20
2023-02-20T08:06:51.778Z,6.30
2023-02-20T08:09:18.955Z,6.30
2023-02-20T08:11:45.784Z,6.40
2023-02-20T08:14:14.073Z,6.50
2023-02-20T08:16:41.098Z,6.50
2023-02-20T08:19:07.919Z,6.50
2023-02-20T08:21:34.691Z,6.60
2023-02-20T08:24:01.531Z,6.70
2023-02-20T08:26:28.853Z,6.80
2023-02-20T08:28:55.889Z,6.70
2023-02-20T08:31:32.265Z,6.70
2023-02-20T08:33:59.778Z,6.80
2023-02-20T08:36:26.541Z,6.90
2023-02-20T08:38:53.255Z,7.00
2023-02-20T08:41:20.207Z,7.00
2023-02-20T08:43:47.118Z,7.00
2023-02-20T08:46:14.156Z,7.10
2023-02-20T08:48:41.766Z,7.20
2023-02-20T08:51:08.653Z,7.30
2023-02-20T08:53:37.539Z,7.40
2023-02-20T08:56:05.287Z,7.40
2023-02-20T08:58:32.082Z,7.50
2023-02-20T09:00:58.954Z,7.70
2023-02-20T09:03:27.135Z,7.90
2023-02-20T09:05:53.933Z,8.20
2023-02-20T09:08:20.595Z,9.10
2023-02-20T09:10:47.562Z,8.30
2023-02-20T09:13:14.743Z,8.30
2023-02-20T09:15:41.617Z,8.40
2023-02-20T09:18:11.604Z,8.60
2023-02-20T09:20:38.888Z,8.70
2023-02-20T09:23:06.503Z,8.70
2023-02-20T09:25:33.625Z,8.70
2023-02-20T09:28:00.320Z,8.70
2023-02-20T09:30:27.173Z,8.80
2023-02-20T09:32:54.547Z,9.00
2023-02-20T09:35:25.151Z,9.10
2023-02-20T09:37:52.503Z,9.30
2023-02-20T09:40:26.093Z,9.30
2023-02-20T09:43:18.846Z,9.50
2023-02-20T09:45:56.869Z,9.70
2023-02-20T09:48:54.905Z,9.70
2023-02-20T09:51:24.836Z,9.70
2023-02-20T09:54:04.756Z,9.70
2023-02-20T09:56:42.117Z,9.70
2023-02-20T09:59:22.008Z,9.80
2023-02-20T10:02:10.125Z,10.10
2023-02-20T10:04:58.751Z,10.30
2023-02-20T10:07:37.711Z,10.40
2023-02-20T10:10:34.309Z,10.70
2023-02-20T10:13:19.978Z,11.00
2023-02-20T10:15:59.753Z,11.00
2023-02-20T10:18:41.448Z,11.10
2023-02-20T10:21:31.362Z,11.20
2023-02-20T10:24:07.128Z,11.30
2023-02-20T10:26:38.773Z,11.40
2023-02-20T10:29:23.348Z,11.60
2023-02-20T10:31:58.100Z,11.50
2023-02-20T10:34:31.747Z,11.50
2023-02-20T10:37:14.563Z,11.60
2023-02-20T10:40:00.182Z,11.90
2023-02-20T10:42:32.954Z,12.10
2023-02-20T10:45:28.369Z,12.30
2023-02-20T10:48:07.796Z,12.40
2023-02-20T10:50:52.865Z,12.50
2023-02-20T10:53:43.403Z,12.60
2023-02-20T10:56:29.130Z,12.60
2023-02-20T10:58:55.796Z,12.80
2023-02-20T11:01:24.866Z,13.00
2023-02-20T11:04:15.670Z,12.90
2023-02-20T11:06:49.425Z,12.70
2023-02-20T11:09:16.651Z,12.60
2023-02-20T11:11:45.264Z,12.60
2023-02-20T11:14:17.282Z,12.60
2023-02-20T11:16:58.633Z,12.60
2023-02-20T11:19:41.645Z,12.80
2023-02-20T11:22:09.372Z,13.00
2023-02-20T11:24:38.848Z,13.10
2023-02-20T11:27:07.504Z,13.30
2023-02-20T11:29:39.554Z,13.60
2023-02-20T11:32:38.723Z,14.00
2023-02-20T11:35:14.520Z,14.10
2023-02-20T11:37:54.003Z,14.30
2023-02-20T11:40:29.221Z,14.30
2023-02-20T11:42:55.930Z,14.10
2023-02-20T11:45:24.972Z,14.00
2023-02-20T11:48:10.343Z,14.00
2023-02-20T11:50:48.836Z,14.00
2023-02-20T11:53:21.135Z,13.90
2023-02-20T11:55:59.698Z,13.80
2023-02-20T11:58:28.329Z,14.00
2023-02-20T12:00:55.632Z,14.00
2023-02-20T12:03:29.668Z,14.10
2023-02-20T12:05:58.383Z,14.20
2023-02-20T12:08:30.873Z,14.50
2023-02-20T12:11:02.030Z,14.60
2023-02-20T12:13:37.021Z,14.50
2023-02-20T12:16:34.553Z,14.60
2023-02-20T12:19:35.893Z,14.60
2023-02-20T12:22:30.550Z,14.40
2023-02-20T12:25:02.354Z,14.30
2023-02-20T12:27:31.854Z,14.20
2023-02-20T12:30:03.238Z,14.30
2023-02-20T12:32:55.176Z,14.50
2023-02-20T12:35:32.036Z,14.40
2023-02-20T12:38:16.882Z,14.40
2023-02-20T12:40:43.514Z,14.40
2023-02-20T12:43:16.402Z,14.80
2023-02-20T12:46:04.164Z,15.10
2023-02-20T12:48:55.048Z,15.10
2023-02-20T12:51:45.474Z,15.50
2023-02-20T12:54:32.901Z,15.60
2023-02-20T12:57:21.088Z,15.50
2023-02-20T13:00:26.862Z,15.10
2023-02-20T13:03:01.299Z,15.00
2023-02-20T13:05:28.802Z,15.20
2023-02-20T13:08:01.463Z,15.50
2023-02-20T13:10:34.702Z,15.40
2023-02-20T13:13:02.594Z,15.50
2023-02-20T13:15:52.770Z,15.40
2023-02-20T13:18:46.062Z,15.50
2023-02-20T13:21:16.745Z,16.00
2023-02-20T13:23:43.412Z,16.30
2023-02-20T13:26:39.273Z,16.00
2023-02-20T13:29:18.157Z,15.90
2023-02-20T13:31:54.197Z,15.90
2023-02-20T13:34:29.325Z,16.10
2023-02-20T13:36:56.021Z,16.30
2023-02-20T13:39:33.936Z,16.50
2023-02-20T13:42:04.569Z,16.30
2023-02-20T13:44:37.152Z,16.20
2023-02-20T13:47:27.418Z,16.20
2023-02-20T13:49:58.791Z,16.30
2023-02-20T13:52:45.087Z,16.40
2023-02-20T13:55:12.115Z,16.20
2023-02-20T13:57:45.665Z,16.40
2023-02-20T14:00:37.436Z,16.90
2023-02-20T14:03:18.493Z,17.40
2023-02-20T14:05:45.237Z,17.90
2023-02-20T14:08:18.832Z,18.80
2023-02-20T14:10:47.930Z,19.80
2023-02-20T14:13:39.018Z,20.70
2023-02-20T14:16:24.382Z,21.40
2023-02-20T14:18:51.125Z,22.00
2023-02-20T14:21:20.340Z,22.40
2023-02-20T14:23:50.120Z,22.50
2023-02-20T14:26:25.933Z,22.60
2023-02-20T14:28:55.302Z,21.80
2023-02-20T14:31:25.921Z,20.80
2023-02-20T14:34:09.154Z,19.90
2023-02-20T14:37:06.990Z,19.40
2023-02-20T14:39:57.946Z,18.80
2023-02-20T14:42:25.737Z,18.30
2023-02-20T14:45:01.186Z,17.60
2023-02-20T14:47:28.061Z,16.90
2023-02-20T14:49:54.782Z,16.20
2023-02-20T14:52:24.486Z,16.10
2023-02-20T14:55:05.148Z,16.10
2023-02-20T14:57:32.265Z,16.00
2023-02-20T15:00:24.720Z,16.10
2023-02-20T15:02:55.514Z,15.60
2023-02-20T15:05:32.360Z,15.80
2023-02-20T15:08:22.316Z,16.30
2023-02-20T15:10:52.804Z,16.70
2023-02-20T15:13:24.144Z,17.20
2023-02-20T15:15:54.176Z,17.50
2023-02-20T15:18:37.139Z,17.30
2023-02-20T15:21:05.737Z,16.80
2023-02-20T15:23:34.505Z,16.30
2023-02-20T15:26:47.133Z,16.40
2023-02-20T15:29:23.731Z,16.30
2023-02-20T15:32:19.842Z,16.10
2023-02-20T15:34:54.431Z,16.00
2023-02-20T15:37:33.762Z,15.60
2023-02-20T15:40:27.960Z,15.40
2023-02-20T15:42:58.499Z,15.50
2023-02-20T15:45:27.132Z,15.40
2023-02-20T15:47:54.533Z,15.30
2023-02-20T15:50:21.570Z,15.10
2023-02-20T15:52:48.719Z,14.80
2023-02-20T15:55:18.456Z,14.70
2023-02-20T15:57:46.487Z,14.70
2023-02-20T16:00:22.606Z,14.40
2023-02-20T16:02:49.459Z,14.30
2023-02-20T16:05:16.243Z,14.30
2023-02-20T16:07:43.302Z,14.00
2023-02-20T16:10:11.121Z,13.90
2023-02-20T16:12:38.465Z,13.80
2023-02-20T16:15:05.997Z,13.80
2023-02-20T16:17:35.275Z,13.80
2023-02-20T16:20:02.320Z,13.60
2023-02-20T16:22:29.161Z,13.50
2023-02-20T16:24:56.048Z,13.40
2023-02-20T16:27:26.438Z,13.30
2023-02-20T16:29:55.470Z,13.40
2023-02-20T16:32:25.463Z,13.20
2023-02-20T16:34:53.677Z,13.00
2023-02-20T16:37:20.751Z,13.00
2023-02-20T16:39:48.131Z,13.00
2023-02-20T16:42:22.568Z,12.80
2023-02-20T16:44:49.930Z,12.70
2023-02-20T16:47:19.195Z,12.50
2023-02-20T16:49:47.659Z,12.50
2023-02-20T16:52:30.686Z,12.40
2023-02-20T16:54:58.947Z,12.40
2023-02-20T16:57:26.798Z,12.10
2023-02-20T16:59:58.626Z,12.10
2023-02-20T17:02:31.431Z,12.00
2023-02-20T17:04:59.304Z,12.10
2023-02-20T17:07:26.369Z,11.80
2023-02-20T17:09:53.723Z,11.70
2023-02-20T17:12:23.449Z,11.80
2023-02-20T17:14:50.917Z,11.30
2023-02-20T17:17:17.650Z,11.20
2023-02-20T17:19:44.395Z,11.00
2023-02-20T17:22:12.913Z,10.80
2023-02-20T17:24:42.449Z,10.60
2023-02-20T17:27:10.522Z,10.50
2023-02-20T17:29:37.786Z,10.30
2023-02-20T17:32:04.897Z,10.10
2023-02-20T17:34:32.834Z,10.00
2023-02-20T17:36:59.609Z,9.90
2023-02-20T17:39:26.393Z,11.20
2023-02-20T17:41:55.256Z,9.50
2023-02-20T17:44:30.605Z,9.40
2023-02-20T17:46:59.243Z,9.30
2023-02-20T17:49:27.269Z,9.10
2023-02-20T17:51:58.533Z,9.10
2023-02-20T17:54:25.869Z,9.00
2023-02-20T17:56:54.417Z,9.00
2023-02-20T17:59:21.598Z,8.90
2023-02-20T18:01:48.386Z,8.80
2023-02-20T18:04:15.420Z,8.70
2023-02-20T18:06:42.230Z,8.60
2023-02-20T18:09:09.870Z,8.60
2023-02-20T18:11:37.336Z,8.50
2023-02-20T18:14:05.998Z,8.40
2023-02-20T18:16:32.820Z,8.30
2023-02-20T18:18:59.723Z,8.30
2023-02-20T18:21:29.279Z,8.20
2023-02-20T18:23:56.125Z,8.20
2023-02-20T18:26:23.690Z,8.10
2023-02-20T18:28:50.430Z,8.00
2023-02-20T18:31:18.281Z,8.00
2023-02-20T18:33:45.367Z,7.90
2023-02-20T18:36:12.256Z,7.70
2023-02-20T18:38:38.932Z,7.60
2023-02-20T18:41:07.405Z,7.60
2023-02-20T18:43:34.214Z,7.60
2023-02-20T18:46:02.002Z,7.50
2023-02-20T18:48:28.683Z,7.50
2023-02-20T18:50:55.344Z,7.40
2023-02-20T18:53:22.171Z,7.30
2023-02-20T18:55:48.895Z,7.20
2023-02-20T18:58:15.720Z,7.20
2023-02-20T19:00:42.461Z,7.10
2023-02-20T19:03:09.298Z,7.00
2023-02-20T19:05:36.251Z,6.90
2023-02-20T19:08:03.995Z,6.80
2023-02-20T19:10:31.141Z,6.80
2023-02-20T19:12:59.030Z,6.70
2023-02-20T19:15:26.147Z,6.70
2023-02-20T19:17:52.999Z,6.60
2023-02-20T19:20:25.737Z,6.40
2023-02-20T19:22:54.690Z,6.40
2023-02-20T19:25:22.083Z,6.40
2023-02-20T19:27:48.941Z,6.30
2023-02-20T19:30:16.500Z,6.30
2023-02-20T19:32:43.584Z,6.10
2023-02-20T19:35:11.076Z,6.20
2023-02-20T19:37:39.085Z,6.20
2023-02-20T19:40:09.234Z,6.10
2023-02-20T19:42:36.179Z,5.90
2023-02-20T19:45:04.657Z,5.90
2023-02-20T19:47:31.337Z,6.00
2023-02-20T19:49:58.004Z,6.00
2023-02-20T19:52:24.686Z,6.00
2023-02-20T19:54:51.407Z,5.90
2023-02-20T19:57:18.204Z,5.80
2023-02-20T19:59:44.890Z,5.80
2023-02-20T20:02:13.152Z,5.80
2023-02-20T20:04:40.134Z,6.00
2023-02-20T20:07:07.132Z,6.10
2023-02-20T20:09:37.033Z,6.30
2023-02-20T20:12:25.870Z,6.20
2023-02-20T20:14:52.798Z,6.30
2023-02-20T20:17:19.572Z,6.30
2023-02-20T20:19:58.418Z,6.30
2023-02-20T20:22:26.869Z,6.30
2023-02-20T20:24:53.561Z,6.20
2023-02-20T20:27:20.919Z,6.00
2023-02-20T20:29:48.920Z,5.80
2023-02-20T20:32:16.958Z,5.80
2023-02-20T20:34:50.516Z,5.70
2023-02-20T20:37:17.296Z,5.60
2023-02-20T20:39:44.067Z,5.50
2023-02-20T20:42:10.722Z,5.50
2023-02-20T20:44:37.402Z,5.40
2023-02-20T20:47:05.257Z,5.40
2023-02-20T20:49:32.103Z,5.40
2023-02-20T20:51:58.755Z,5.30
2023-02-20T20:54:25.432Z,5.30
2023-02-20T20:56:52.105Z,5.20
2023-02-20T20:59:18.791Z,5.20
2023-02-20T21:01:45.882Z,5.10
2023-02-20T21:04:13.249Z,5.10
2023-02-20T21:06:39.933Z,5.20
2023-02-20T21:09:06.673Z,5.10
2023-02-20T21:11:35.338Z,5.10
2023-02-20T21:14:02.474Z,5.10
2023-02-20T21:16:29.232Z,5.10
2023-02-20T21:18:55.979Z,5.00
2023-02-20T21:21:28.183Z,5.00
2023-02-20T21:23:54.919Z,5.10
2023-02-20T21:26:22.389Z,5.10
2023-02-20T21:28:49.923Z,5.00
2023-02-20T21:31:17.490Z,5.00
2023-02-20T21:33:44.745Z,4.90
2023-02-20T21:36:11.617Z,4.90
2023-02-20T21:38:38.330Z,4.90
2023-02-20T21:41:05.366Z,5.00
2023-02-20T21:43:50.540Z,5.10
2023-02-20T21:46:19.503Z,5.10
2023-02-20T21:48:46.246Z,5.10
2023-02-20T21:51:13.200Z,5.00
2023-02-20T21:53:40.014Z,5.00
2023-02-20T21:56:07.039Z,5.00
2023-02-20T21:58:52.300Z,5.00
2023-02-20T22:01:19.019Z,5.00
2023-02-20T22:03:46.517Z,5.20
2023-02-20T22:06:13.138Z,5.40
2023-02-20T22:08:58.479Z,5.40
2023-02-20T22:11:43.933Z,5.40
2023-02-20T22:14:29.310Z,5.50
2023-02-20T22:17:14.851Z,5.40
2023-02-20T22:20:00.268Z,5.30
2023-02-20T22:22:45.816Z,5.30
2023-02-20T22:25:30.952Z,5.40
2023-02-20T22:28:16.389Z,5.40
2023-02-20T22:31:02.093Z,5.40
2023-02-20T22:33:48.015Z,5.40
2023-02-20T22:36:33.478Z,5.30
2023-02-20T22:39:18.778Z,5.30
2023-02-20T22:42:04.300Z,5.10
2023-02-20T22:44:49.574Z,5.00
2023-02-20T22:47:34.966Z,4.90
2023-02-20T22:50:20.452Z,4.80
2023-02-20T22:53:08.188Z,4.80
2023-02-20T22:55:53.626Z,4.70
2023-02-20T22:58:39.238Z,4.60
2023-02-20T23:01:25.013Z,4.60
2023-02-20T23:04:10.349Z,4.60
2023-02-20T23:06:55.925Z,4.60
2023-02-20T23:09:41.312Z,4.70
2023-02-20T23:12:26.948Z,4.80
2023-02-20T23:15:12.494Z,4.80
2023-02-20T23:18:00.968Z,4.80
2023-02-20T23:20:46.339Z,4.80
2023-02-20T23:23:33.455Z,4.70
2023-02-20T23:26:18.986Z,4.60
2023-02-20T23:29:04.566Z,4.50
2023-02-20T23:31:56.427Z,4.40
2023-02-20T23:34:42.716Z,4.30
2023-02-20T23:37:28.328Z,4.20
2023-02-20T23:40:15.917Z,4.20
2023-02-20T23:43:02.953Z,4.10
2023-02-20T23:45:48.489Z,4.00
2023-02-20T23:48:33.764Z,4.00
2023-02-20T23:51:18.961Z,4.00
2023-02-20T23:54:04.432Z,3.90
2023-02-20T23:56:49.913Z,3.80
2023-02-20T23:59:35.173Z,3.80
